createdAt,value
2022-12-14T00:01:42.534Z,2.77
2022-12-14T00:03:52.925Z,2.75
2022-12-14T00:05:57.451Z,2.73
2022-12-14T00:08:01.442Z,2.70
2022-12-14T00:10:07.794Z,2.66
2022-12-14T00:12:11.961Z,2.66
2022-12-14T00:14:16.435Z,2.66
2022-12-14T00:16:20.672Z,2.64
2022-12-14T00:18:24.907Z,2.65
2022-12-14T00:20:29.355Z,2.65
2022-12-14T00:22:32.898Z,2.65
2022-12-14T00:24:36.620Z,2.65
2022-12-14T00:26:41.602Z,2.66
2022-12-14T00:28:46.866Z,2.65
2022-12-14T00:30:53.911Z,2.67
2022-12-14T00:33:00.348Z,2.65
2022-12-14T00:35:03.964Z,2.65
2022-12-14T00:37:07.698Z,2.63
2022-12-14T00:39:11.323Z,2.64
2022-12-14T00:41:15.511Z,2.66
2022-12-14T00:43:20.748Z,2.65
2022-12-14T00:45:25.396Z,2.66
2022-12-14T00:47:28.865Z,2.65
2022-12-14T00:49:32.427Z,2.63
2022-12-14T00:51:36.041Z,2.61
2022-12-14T00:53:39.454Z,2.60
2022-12-14T00:55:49.323Z,2.58
2022-12-14T00:57:53.596Z,2.60
2022-12-14T00:59:58.658Z,2.61
2022-12-14T01:02:02.531Z,2.60
2022-12-14T01:04:19.533Z,2.62
2022-12-14T01:06:24.453Z,2.63
2022-12-14T01:08:35.730Z,2.68
2022-12-14T01:10:41.351Z,2.70
2022-12-14T01:12:45.212Z,2.74
2022-12-14T01:14:49.991Z,2.74
2022-12-14T01:16:54.963Z,2.75
2022-12-14T01:18:58.495Z,2.78
2022-12-14T01:21:13.828Z,2.77
2022-12-14T01:23:18.218Z,2.78
2022-12-14T01:25:22.205Z,2.78
2022-12-14T01:27:26.096Z,2.76
2022-12-14T01:29:29.709Z,2.75
2022-12-14T01:31:36.182Z,2.73
2022-12-14T01:33:41.762Z,2.71
2022-12-14T01:35:45.269Z,2.69
2022-12-14T01:37:48.978Z,2.66
2022-12-14T01:39:52.911Z,2.64
2022-12-14T01:41:56.778Z,2.61
2022-12-14T01:44:02.718Z,2.57
2022-12-14T01:46:06.455Z,2.52
2022-12-14T01:48:15.532Z,2.46
2022-12-14T01:50:29.379Z,2.40
2022-12-14T01:52:38.318Z,2.37
2022-12-14T01:54:48.759Z,2.33
2022-12-14T01:56:53.947Z,2.30
2022-12-14T01:59:03.370Z,2.28
2022-12-14T02:01:07.264Z,2.25
2022-12-14T02:03:14.051Z,2.23
2022-12-14T02:05:19.952Z,2.22
2022-12-14T02:07:26.925Z,2.20
2022-12-14T02:09:35.555Z,2.20
2022-12-14T02:11:48.420Z,2.16
2022-12-14T02:13:52.073Z,2.14
2022-12-14T02:15:55.861Z,2.13
2022-12-14T02:17:59.611Z,2.10
2022-12-14T02:20:04.424Z,2.08
2022-12-14T02:22:38.247Z,2.06
2022-12-14T02:25:08.426Z,2.02
2022-12-14T02:27:17.017Z,2.02
2022-12-14T02:29:34.695Z,1.99
2022-12-14T02:31:49.140Z,1.98
2022-12-14T02:33:59.400Z,1.97
2022-12-14T02:36:12.588Z,1.96
2022-12-14T02:38:39.288Z,1.97
2022-12-14T02:40:52.684Z,1.96
2022-12-14T02:43:03.067Z,1.95
2022-12-14T02:45:13.701Z,1.95
2022-12-14T02:47:26.389Z,1.96
2022-12-14T02:49:49.239Z,1.96
2022-12-14T02:51:59.665Z,1.96
2022-12-14T02:54:08.563Z,1.96
2022-12-14T02:56:16.499Z,1.97
2022-12-14T02:58:25.539Z,2.00
2022-12-14T03:00:33.684Z,2.00
2022-12-14T03:02:40.337Z,2.02
2022-12-14T03:04:49.168Z,2.02
2022-12-14T03:07:02.857Z,2.04
2022-12-14T03:09:11.285Z,2.05
2022-12-14T03:11:19.999Z,2.03
2022-12-14T03:13:29.033Z,2.06
2022-12-14T03:15:38.295Z,2.07
2022-12-14T03:17:43.854Z,2.07
2022-12-14T03:19:56.083Z,2.06
2022-12-14T03:22:01.791Z,2.09
2022-12-14T03:24:12.643Z,2.10
2022-12-14T03:26:22.815Z,2.13
2022-12-14T03:28:31.959Z,2.15
2022-12-14T03:30:59.562Z,2.17
2022-12-14T03:33:09.234Z,2.20
2022-12-14T03:35:19.105Z,2.23
2022-12-14T03:37:29.328Z,2.24
2022-12-14T03:39:36.018Z,2.25
2022-12-14T03:41:48.737Z,2.26
2022-12-14T03:44:05.912Z,2.29
2022-12-14T03:46:16.319Z,2.32
2022-12-14T03:48:32.510Z,2.33
2022-12-14T03:50:41.407Z,2.34
2022-12-14T03:52:55.136Z,2.36
2022-12-14T03:55:06.969Z,2.38
2022-12-14T03:57:18.491Z,2.40
2022-12-14T03:59:30.552Z,2.42
2022-12-14T04:01:45.352Z,2.43
2022-12-14T04:03:54.727Z,2.48
2022-12-14T04:06:04.438Z,2.48
2022-12-14T04:08:12.936Z,2.48
2022-12-14T04:10:43.347Z,2.48
2022-12-14T04:13:04.644Z,2.48
2022-12-14T04:15:31.855Z,2.49
2022-12-14T04:18:06.710Z,2.48
2022-12-14T04:20:17.004Z,2.47
2022-12-14T04:22:24.195Z,2.44
2022-12-14T04:24:51.669Z,2.45
2022-12-14T04:26:58.499Z,2.43
2022-12-14T04:29:25.560Z,2.41
2022-12-14T04:31:32.111Z,2.37
2022-12-14T04:33:50.077Z,2.34
2022-12-14T04:35:55.076Z,2.29
2022-12-14T04:38:02.285Z,2.27
2022-12-14T04:40:09.956Z,2.22
2022-12-14T04:42:16.734Z,2.19
2022-12-14T04:44:25.138Z,2.15
2022-12-14T04:46:37.560Z,2.15
2022-12-14T04:48:55.720Z,2.14
2022-12-14T04:51:10.920Z,2.14
2022-12-14T04:53:19.974Z,2.14
2022-12-14T04:55:29.613Z,2.18
2022-12-14T04:57:40.141Z,2.22
2022-12-14T04:59:44.286Z,2.22
2022-12-14T05:01:57.280Z,2.22
2022-12-14T05:04:12.306Z,2.20
2022-12-14T05:06:22.268Z,2.19
2022-12-14T05:08:38.970Z,2.19
2022-12-14T05:10:46.012Z,2.21
2022-12-14T05:12:57.095Z,2.26
2022-12-14T05:15:07.115Z,2.29
2022-12-14T05:17:10.711Z,2.32
2022-12-14T05:19:16.763Z,2.33
2022-12-14T05:21:33.969Z,2.32
2022-12-14T05:23:37.219Z,2.31
2022-12-14T05:25:40.623Z,2.31
2022-12-14T05:27:43.840Z,2.29
2022-12-14T05:29:47.146Z,2.29
2022-12-14T05:31:51.458Z,2.27
2022-12-14T05:33:54.702Z,2.25
2022-12-14T05:35:59.326Z,2.26
2022-12-14T05:38:02.565Z,2.28
2022-12-14T05:40:06.822Z,2.32
2022-12-14T05:42:10.038Z,2.36
2022-12-14T05:44:13.383Z,2.36
2022-12-14T05:46:16.759Z,2.32
2022-12-14T05:48:20.030Z,2.33
2022-12-14T05:50:23.281Z,2.31
2022-12-14T05:52:28.421Z,2.29
2022-12-14T05:54:31.652Z,2.28
2022-12-14T05:56:34.893Z,2.29
2022-12-14T05:58:38.879Z,2.31
2022-12-14T06:00:42.124Z,2.31
2022-12-14T06:02:45.485Z,2.34
2022-12-14T06:04:48.877Z,2.37
2022-12-14T06:06:52.279Z,2.37
2022-12-14T06:08:56.882Z,2.38
2022-12-14T06:11:03.929Z,2.37
2022-12-14T06:13:07.202Z,2.36
2022-12-14T06:15:11.266Z,2.33
2022-12-14T06:17:14.485Z,2.32
2022-12-14T06:19:17.787Z,2.32
2022-12-14T06:21:22.812Z,2.32
2022-12-14T06:23:26.358Z,2.32
2022-12-14T06:25:31.315Z,2.29
2022-12-14T06:27:34.553Z,2.27
2022-12-14T06:29:37.977Z,2.25
2022-12-14T06:31:41.321Z,2.24
2022-12-14T06:33:45.727Z,2.22
2022-12-14T06:35:49.372Z,2.21
2022-12-14T06:37:53.532Z,2.23
2022-12-14T06:39:57.252Z,2.25
2022-12-14T06:42:02.179Z,2.26
2022-12-14T06:44:07.292Z,2.27
2022-12-14T06:46:15.603Z,2.32
2022-12-14T06:48:19.476Z,2.33
2022-12-14T06:50:23.099Z,2.36
2022-12-14T06:52:27.521Z,2.35
2022-12-14T06:54:31.743Z,2.35
2022-12-14T06:56:35.570Z,2.38
2022-12-14T06:58:40.909Z,2.37
2022-12-14T07:00:44.708Z,2.36
2022-12-14T07:02:48.976Z,2.32
2022-12-14T07:04:52.715Z,2.30
2022-12-14T07:06:56.296Z,2.29
2022-12-14T07:09:02.110Z,2.27
2022-12-14T07:11:07.146Z,2.27
2022-12-14T07:13:11.084Z,2.27
2022-12-14T07:15:16.111Z,2.28
2022-12-14T07:17:20.253Z,2.31
2022-12-14T07:19:23.881Z,2.30
2022-12-14T07:21:28.035Z,2.26
2022-12-14T07:23:33.512Z,2.24
2022-12-14T07:25:37.446Z,2.24
2022-12-14T07:27:40.980Z,2.22
2022-12-14T07:29:45.059Z,2.19
2022-12-14T07:31:50.212Z,2.17
2022-12-14T07:33:54.655Z,2.15
2022-12-14T07:36:03.834Z,2.12
2022-12-14T07:38:07.532Z,2.10
2022-12-14T07:40:12.265Z,2.08
2022-12-14T07:42:15.799Z,2.04
2022-12-14T07:44:23.727Z,2.03
2022-12-14T07:46:29.318Z,2.01
2022-12-14T07:48:34.396Z,2.01
2022-12-14T07:50:38.120Z,1.99
2022-12-14T07:52:41.965Z,1.99
2022-12-14T07:54:45.590Z,1.98
2022-12-14T07:56:49.737Z,1.97
2022-12-14T07:58:54.112Z,1.97
2022-12-14T08:00:57.833Z,1.94
2022-12-14T08:03:01.442Z,1.94
2022-12-14T08:05:12.357Z,1.98
2022-12-14T08:07:16.345Z,2.06
2022-12-14T08:09:21.100Z,2.09
2022-12-14T08:11:25.894Z,2.09
2022-12-14T08:13:31.826Z,2.10
2022-12-14T08:15:39.953Z,2.12
2022-12-14T08:17:43.930Z,2.11
2022-12-14T08:19:47.488Z,2.12
2022-12-14T08:21:52.610Z,2.11
2022-12-14T08:23:57.364Z,2.11
2022-12-14T08:26:02.411Z,2.12
2022-12-14T08:28:06.240Z,2.11
2022-12-14T08:30:11.256Z,2.10
2022-12-14T08:32:14.854Z,2.08
2022-12-14T08:34:22.971Z,2.04
2022-12-14T08:36:28.354Z,2.00
2022-12-14T08:38:33.273Z,1.97
2022-12-14T08:40:37.031Z,1.96
2022-12-14T08:42:41.065Z,1.94
2022-12-14T08:44:44.661Z,1.93
2022-12-14T08:46:48.420Z,1.90
2022-12-14T08:48:53.367Z,1.88
2022-12-14T08:51:02.177Z,1.86
2022-12-14T08:53:06.314Z,1.85
2022-12-14T08:55:11.529Z,1.88
2022-12-14T08:57:16.336Z,1.92
2022-12-14T08:59:52.173Z,1.94
2022-12-14T09:01:45.836Z,1.96
2022-12-14T09:03:50.124Z,1.98
2022-12-14T09:05:54.628Z,2.02
2022-12-14T09:07:59.246Z,2.06
2022-12-14T09:10:03.467Z,2.10
2022-12-14T09:12:09.370Z,2.14
2022-12-14T09:14:13.040Z,2.18
2022-12-14T09:16:18.482Z,2.24
2022-12-14T09:18:22.100Z,2.30
2022-12-14T09:20:25.691Z,2.36
2022-12-14T09:22:30.679Z,2.37
2022-12-14T09:24:34.681Z,2.41
2022-12-14T09:26:38.270Z,2.45
2022-12-14T09:28:46.565Z,2.48
2022-12-14T09:30:54.988Z,2.51
2022-12-14T09:32:58.798Z,2.56
2022-12-14T09:35:02.458Z,2.60
2022-12-14T09:37:07.930Z,2.63
2022-12-14T09:39:15.059Z,2.66
2022-12-14T09:41:27.042Z,2.70
2022-12-14T09:43:40.764Z,2.76
2022-12-14T09:45:52.217Z,2.78
2022-12-14T09:48:02.429Z,2.81
2022-12-14T09:50:13.139Z,2.84
2022-12-14T09:52:20.196Z,2.86
2022-12-14T09:54:28.160Z,2.85
2022-12-14T09:56:32.883Z,2.83
2022-12-14T09:58:37.682Z,2.80
2022-12-14T10:00:51.369Z,2.75
2022-12-14T10:03:21.466Z,2.67
2022-12-14T10:05:50.017Z,2.64
2022-12-14T10:08:04.282Z,2.62
2022-12-14T10:10:19.122Z,2.58
2022-12-14T10:12:40.407Z,2.47
2022-12-14T10:14:58.381Z,2.45
2022-12-14T10:17:11.860Z,2.43
2022-12-14T10:19:29.394Z,2.37
2022-12-14T10:21:44.806Z,2.34
2022-12-14T10:23:56.546Z,2.34
2022-12-14T10:26:08.065Z,2.32
2022-12-14T10:28:19.054Z,2.34
2022-12-14T10:30:23.172Z,2.36
2022-12-14T10:32:33.579Z,2.34
2022-12-14T10:34:42.410Z,2.32
2022-12-14T10:36:54.227Z,2.33
2022-12-14T10:39:00.474Z,2.33
2022-12-14T10:41:17.321Z,2.34
2022-12-14T10:43:36.500Z,2.36
2022-12-14T10:45:47.150Z,2.39
2022-12-14T10:47:54.112Z,2.38
2022-12-14T10:50:05.419Z,2.36
2022-12-14T10:52:17.079Z,2.32
2022-12-14T10:54:28.336Z,2.23
2022-12-14T10:56:35.192Z,2.18
2022-12-14T10:58:38.683Z,2.17
2022-12-14T11:00:42.479Z,2.17
2022-12-14T11:02:50.257Z,2.18
2022-12-14T11:04:55.440Z,2.18
2022-12-14T11:07:04.480Z,2.19
2022-12-14T11:09:21.805Z,2.18
2022-12-14T11:11:27.419Z,2.23
2022-12-14T11:13:31.280Z,2.25
2022-12-14T11:15:38.010Z,2.29
2022-12-14T11:17:43.141Z,2.31
2022-12-14T11:20:04.057Z,2.32
2022-12-14T11:22:21.737Z,2.31
2022-12-14T11:24:27.785Z,2.31
2022-12-14T11:26:35.684Z,2.28
2022-12-14T11:28:49.966Z,2.28
2022-12-14T11:30:57.826Z,2.30
2022-12-14T11:33:01.508Z,2.33
2022-12-14T11:35:05.568Z,2.43
2022-12-14T11:37:23.752Z,2.60
2022-12-14T11:39:27.460Z,2.80
2022-12-14T11:41:35.844Z,2.99
2022-12-14T11:43:39.482Z,3.15
2022-12-14T11:45:51.711Z,3.25
2022-12-14T11:48:12.552Z,3.34
2022-12-14T11:50:25.355Z,3.39
2022-12-14T11:52:42.854Z,3.45
2022-12-14T11:54:50.250Z,3.46
2022-12-14T11:57:00.498Z,3.46
2022-12-14T11:59:04.100Z,3.45
2022-12-14T12:01:13.564Z,3.42
2022-12-14T12:03:23.556Z,3.36
2022-12-14T12:05:28.993Z,3.29
2022-12-14T12:07:36.239Z,3.27
2022-12-14T12:09:43.154Z,3.22
2022-12-14T12:11:47.511Z,3.17
2022-12-14T12:13:54.388Z,3.13
2022-12-14T12:16:02.358Z,3.08
2022-12-14T12:18:09.941Z,3.04
2022-12-14T12:20:24.687Z,3.04
2022-12-14T12:22:31.567Z,3.07
2022-12-14T12:25:08.190Z,3.09
2022-12-14T12:27:12.254Z,3.08
2022-12-14T12:29:22.684Z,3.10
2022-12-14T12:31:32.954Z,3.11
2022-12-14T12:33:44.829Z,3.13
2022-12-14T12:35:53.596Z,3.15
2022-12-14T12:38:01.569Z,3.16
2022-12-14T12:40:16.210Z,3.16
2022-12-14T12:42:26.072Z,3.19
2022-12-14T12:44:44.848Z,3.20
2022-12-14T12:47:40.086Z,3.20
2022-12-14T12:49:37.524Z,3.21
2022-12-14T12:51:47.805Z,3.21
2022-12-14T12:53:57.199Z,3.20
2022-12-14T12:56:09.194Z,3.26
2022-12-14T12:58:22.929Z,3.33
2022-12-14T13:00:28.581Z,3.40
2022-12-14T13:02:35.443Z,3.50
2022-12-14T13:04:47.798Z,3.54
2022-12-14T13:06:59.091Z,3.54
2022-12-14T13:09:11.723Z,3.55
2022-12-14T13:11:26.489Z,3.62
2022-12-14T13:13:34.828Z,3.66
2022-12-14T13:15:43.494Z,3.65
2022-12-14T13:17:51.010Z,3.60
2022-12-14T13:19:57.385Z,3.53
2022-12-14T13:22:06.389Z,3.50
2022-12-14T13:24:17.933Z,3.45
2022-12-14T13:27:00.576Z,3.44
2022-12-14T13:29:09.372Z,3.41
2022-12-14T13:31:22.372Z,3.38
2022-12-14T13:33:59.732Z,3.34
2022-12-14T13:36:33.928Z,3.33
2022-12-14T13:38:56.487Z,3.32
2022-12-14T13:41:20.924Z,3.29
2022-12-14T13:43:40.458Z,3.30
2022-12-14T13:45:49.676Z,3.30
2022-12-14T13:47:56.892Z,3.34
2022-12-14T13:52:37.551Z,3.30
2022-12-14T13:54:41.602Z,3.27
2022-12-14T13:56:45.959Z,3.27
2022-12-14T13:58:53.935Z,3.25
2022-12-14T14:01:04.008Z,3.23
2022-12-14T14:03:09.998Z,3.22
2022-12-14T14:05:39.989Z,3.18
2022-12-14T14:07:53.809Z,3.14
2022-12-14T14:10:04.950Z,3.08
2022-12-14T14:12:53.393Z,3.04
2022-12-14T14:15:04.977Z,3.03
2022-12-14T14:17:14.685Z,2.99
2022-12-14T14:19:24.188Z,2.99
2022-12-14T14:21:58.920Z,3.00
2022-12-14T14:24:22.116Z,2.99
2022-12-14T14:26:30.819Z,2.98
2022-12-14T14:28:34.997Z,2.92
2022-12-14T14:30:44.406Z,2.86
2022-12-14T14:32:48.527Z,2.82
2022-12-14T14:34:53.091Z,2.77
2022-12-14T14:36:57.001Z,2.68
2022-12-14T14:39:01.991Z,2.63
2022-12-14T14:41:16.628Z,2.59
2022-12-14T14:43:29.157Z,2.54
2022-12-14T14:45:38.783Z,2.52
2022-12-14T14:47:44.794Z,2.49
2022-12-14T14:49:54.588Z,2.46
2022-12-14T14:51:59.400Z,2.46
2022-12-14T14:55:11.082Z,2.48
2022-12-14T14:57:01.117Z,2.48
2022-12-14T14:59:51.212Z,2.50
2022-12-14T15:01:58.312Z,2.51
2022-12-14T15:04:07.958Z,2.54
2022-12-14T15:06:15.865Z,2.54
2022-12-14T15:08:24.102Z,2.53
2022-12-14T15:10:32.600Z,2.51
2022-12-14T15:12:43.166Z,2.51
2022-12-14T15:14:51.893Z,2.50
2022-12-14T15:16:55.701Z,2.50
2022-12-14T15:19:23.592Z,2.51
2022-12-14T15:21:27.163Z,2.52
2022-12-14T15:23:36.969Z,2.52
2022-12-14T15:25:40.470Z,2.51
2022-12-14T15:27:43.997Z,2.47
2022-12-14T15:29:49.229Z,2.44
2022-12-14T15:31:59.978Z,2.37
2022-12-14T15:34:04.390Z,2.30
2022-12-14T15:36:15.635Z,2.22
2022-12-14T15:38:24.369Z,2.17
2022-12-14T15:40:30.348Z,2.15
2022-12-14T15:42:33.709Z,2.12
2022-12-14T15:44:37.148Z,2.12
2022-12-14T15:46:40.823Z,2.11
2022-12-14T15:48:44.369Z,2.10
2022-12-14T15:50:50.960Z,2.06
2022-12-14T15:53:00.243Z,2.04
2022-12-14T15:55:03.527Z,2.03
2022-12-14T15:57:14.432Z,1.96
2022-12-14T15:59:21.564Z,1.96
2022-12-14T16:01:29.212Z,1.94
2022-12-14T16:03:37.850Z,1.93
2022-12-14T16:05:41.426Z,1.92
2022-12-14T16:07:48.815Z,1.93
2022-12-14T16:09:58.337Z,1.89
2022-12-14T16:12:06.007Z,1.84
2022-12-14T16:14:19.615Z,1.86
2022-12-14T16:16:22.796Z,1.88
2022-12-14T16:18:26.598Z,1.89
2022-12-14T16:20:31.996Z,1.89
2022-12-14T16:22:39.465Z,1.92
2022-12-14T16:25:01.616Z,1.94
2022-12-14T16:27:06.290Z,1.97
2022-12-14T16:29:19.528Z,2.00
2022-12-14T16:31:25.217Z,2.04
2022-12-14T16:33:30.324Z,2.05
2022-12-14T16:35:36.970Z,2.05
2022-12-14T16:37:40.315Z,2.05
2022-12-14T16:39:47.726Z,2.01
2022-12-14T16:41:58.562Z,1.98
2022-12-14T16:44:02.675Z,1.98
2022-12-14T16:46:20.804Z,2.01
2022-12-14T16:48:24.860Z,2.05
2022-12-14T16:53:15.289Z,2.04
2022-12-14T16:55:20.114Z,2.04
2022-12-14T16:57:25.892Z,2.05
2022-12-14T16:59:38.184Z,2.05
2022-12-14T17:01:46.169Z,2.03
2022-12-14T17:04:00.285Z,2.00
2022-12-14T17:06:06.857Z,1.98
2022-12-14T17:08:12.783Z,1.99
2022-12-14T17:10:17.791Z,1.99
2022-12-14T17:12:21.416Z,1.98
2022-12-14T17:14:26.547Z,1.93
2022-12-14T17:16:30.220Z,1.89
2022-12-14T17:18:36.135Z,1.83
2022-12-14T17:20:40.320Z,1.78
2022-12-14T17:22:49.365Z,1.68
2022-12-14T17:24:53.429Z,1.62
2022-12-14T17:26:57.607Z,1.58
2022-12-14T17:29:01.207Z,1.54
2022-12-14T17:31:06.572Z,1.44
2022-12-14T17:33:10.892Z,1.41
2022-12-14T17:35:18.496Z,1.36
2022-12-14T17:37:24.317Z,1.33
2022-12-14T17:39:28.877Z,1.31
2022-12-14T17:41:32.615Z,1.30
2022-12-14T17:43:36.922Z,1.29
2022-12-14T17:45:41.537Z,1.29
2022-12-14T17:47:46.602Z,1.26
2022-12-14T17:49:50.151Z,1.22
2022-12-14T17:51:53.933Z,1.20
2022-12-14T17:53:59.629Z,1.17
2022-12-14T17:56:03.211Z,1.12
2022-12-14T17:58:06.999Z,1.09
2022-12-14T18:00:33.625Z,1.05
2022-12-14T18:02:38.092Z,1.01
2022-12-14T18:04:43.188Z,0.99
2022-12-14T18:06:46.900Z,0.99
2022-12-14T18:08:50.505Z,0.99
2022-12-14T18:10:57.721Z,1.00
2022-12-14T18:13:02.511Z,1.00
2022-12-14T18:15:11.948Z,1.01
2022-12-14T18:17:16.286Z,0.99
2022-12-14T18:19:20.023Z,0.99
2022-12-14T18:21:28.072Z,0.98
2022-12-14T18:23:33.276Z,0.96
2022-12-14T18:25:38.524Z,0.96
2022-12-14T18:27:42.635Z,0.95
2022-12-14T18:29:46.383Z,0.90
2022-12-14T18:31:50.502Z,0.88
2022-12-14T18:33:54.230Z,0.85
2022-12-14T18:35:58.659Z,0.84
2022-12-14T18:38:03.812Z,0.82
2022-12-14T18:40:08.970Z,0.80
2022-12-14T18:42:14.543Z,0.78
2022-12-14T18:44:22.463Z,0.73
2022-12-14T18:46:27.029Z,0.71
2022-12-14T18:48:30.547Z,0.69
2022-12-14T18:50:37.256Z,0.66
2022-12-14T18:52:45.064Z,0.64
2022-12-14T18:54:52.005Z,0.62
2022-12-14T18:56:55.789Z,0.59
2022-12-14T18:59:00.687Z,0.54
2022-12-14T19:01:04.110Z,0.49
2022-12-14T19:03:08.255Z,0.47
2022-12-14T19:05:12.636Z,0.45
2022-12-14T19:07:16.989Z,0.45
2022-12-14T19:09:20.943Z,0.43
2022-12-14T19:11:31.137Z,0.44
2022-12-14T19:13:34.615Z,0.44
2022-12-14T19:15:38.659Z,0.43
2022-12-14T19:17:42.355Z,0.41
2022-12-14T19:19:46.003Z,0.40
2022-12-14T19:21:49.715Z,0.38
2022-12-14T19:23:53.734Z,0.35
2022-12-14T19:25:57.357Z,0.35
2022-12-14T19:30:27.349Z,0.27
2022-12-14T19:32:30.788Z,0.22
2022-12-14T19:34:34.357Z,0.17
2022-12-14T19:36:37.919Z,0.15
2022-12-14T19:38:41.425Z,0.11
2022-12-14T19:40:46.616Z,0.07
2022-12-14T19:42:50.632Z,0.03
2022-12-14T19:44:55.854Z,-0.01
2022-12-14T19:46:59.582Z,-0.05
2022-12-14T19:49:03.715Z,-0.09
2022-12-14T19:51:08.882Z,-0.11
2022-12-14T19:53:12.608Z,-0.16
2022-12-14T19:55:16.330Z,-0.20
2022-12-14T19:57:20.554Z,-0.22
2022-12-14T19:59:24.639Z,-0.24
2022-12-14T20:01:32.827Z,-0.27
2022-12-14T20:03:37.324Z,-0.31
2022-12-14T20:05:41.518Z,-0.32
2022-12-14T20:07:45.319Z,-0.35
2022-12-14T20:09:49.485Z,-0.34
2022-12-14T20:11:53.548Z,-0.34
2022-12-14T20:14:02.953Z,-0.35
2022-12-14T20:16:07.715Z,-0.33
2022-12-14T20:18:13.223Z,-0.32
2022-12-14T20:20:17.092Z,-0.33
2022-12-14T20:22:20.791Z,-0.35
2022-12-14T20:24:24.253Z,-0.37
2022-12-14T20:26:28.657Z,-0.36
2022-12-14T20:28:32.391Z,-0.37
2022-12-14T20:30:36.187Z,-0.39
2022-12-14T20:32:41.201Z,-0.40
2022-12-14T20:34:46.236Z,-0.39
2022-12-14T20:36:49.886Z,-0.38
2022-12-14T20:38:56.171Z,-0.38
2022-12-14T20:41:06.108Z,-0.38
2022-12-14T20:43:10.005Z,-0.40
2022-12-14T20:45:13.493Z,-0.42
2022-12-14T20:47:17.294Z,-0.43
2022-12-14T20:49:23.521Z,-0.47
2022-12-14T20:51:30.349Z,-0.47
2022-12-14T20:53:34.103Z,-0.48
2022-12-14T20:55:37.839Z,-0.49
2022-12-14T20:57:41.568Z,-0.50
2022-12-14T20:59:45.132Z,-0.50
2022-12-14T21:01:55.059Z,-0.53
2022-12-14T21:04:02.310Z,-0.53
2022-12-14T21:06:06.068Z,-0.52
2022-12-14T21:08:11.699Z,-0.54
2022-12-14T21:10:15.298Z,-0.54
2022-12-14T21:12:21.053Z,-0.55
2022-12-14T21:14:26.914Z,-0.57
2022-12-14T21:16:30.832Z,-0.59
2022-12-14T21:18:34.374Z,-0.60
2022-12-14T21:20:38.180Z,-0.60
2022-12-14T21:22:41.798Z,-0.60
2022-12-14T21:25:04.738Z,-0.59
2022-12-14T21:27:10.271Z,-0.60
2022-12-14T21:29:15.466Z,-0.61
2022-12-14T21:31:19.197Z,-0.62
2022-12-14T21:33:22.881Z,-0.62
2022-12-14T21:35:26.504Z,-0.62
2022-12-14T21:37:30.193Z,-0.65
2022-12-14T21:39:33.858Z,-0.66
2022-12-14T21:41:56.187Z,-0.66
2022-12-14T21:44:00.712Z,-0.66
2022-12-14T21:46:04.372Z,-0.68
2022-12-14T21:48:07.984Z,-0.69
2022-12-14T21:50:11.708Z,-0.70
2022-12-14T21:52:19.083Z,-0.69
2022-12-14T21:54:22.813Z,-0.69
2022-12-14T21:56:45.544Z,-0.70
2022-12-14T21:58:54.156Z,-0.73
2022-12-14T22:00:57.853Z,-0.75
2022-12-14T22:03:01.788Z,-0.77
2022-12-14T22:05:05.805Z,-0.78
2022-12-14T22:07:09.455Z,-0.81
2022-12-14T22:09:13.113Z,-0.82
2022-12-14T22:11:16.880Z,-0.81
2022-12-14T22:13:20.496Z,-0.82
2022-12-14T22:15:25.353Z,-0.82
2022-12-14T22:17:29.064Z,-0.81
2022-12-14T22:19:32.964Z,-0.80
2022-12-14T22:21:39.419Z,-0.77
2022-12-14T22:23:43.995Z,-0.78
2022-12-14T22:25:51.214Z,-0.79
2022-12-14T22:27:54.857Z,-0.79
2022-12-14T22:29:58.365Z,-0.80
2022-12-14T22:32:03.645Z,-0.80
2022-12-14T22:34:09.077Z,-0.81
2022-12-14T22:36:12.557Z,-0.84
2022-12-14T22:38:16.181Z,-0.85
2022-12-14T22:40:20.172Z,-0.85
2022-12-14T22:42:23.967Z,-0.87
2022-12-14T22:44:27.569Z,-0.87
2022-12-14T22:46:32.034Z,-0.90
2022-12-14T22:48:38.524Z,-0.91
2022-12-14T22:50:42.181Z,-0.90
2022-12-14T22:52:49.492Z,-0.90
2022-12-14T22:54:54.343Z,-0.92
2022-12-14T22:57:02.604Z,-0.94
2022-12-14T22:59:10.741Z,-0.95
2022-12-14T23:01:16.189Z,-0.96
2022-12-14T23:03:19.968Z,-0.94
2022-12-14T23:05:25.152Z,-0.94
2022-12-14T23:07:28.682Z,-0.92
2022-12-14T23:09:49.589Z,-0.92
2022-12-14T23:12:11.918Z,-0.97
2022-12-14T23:14:33.679Z,-0.98
2022-12-14T23:16:54.868Z,-0.97
2022-12-14T23:19:16.040Z,-0.97
2022-12-14T23:21:38.665Z,-0.96
2022-12-14T23:24:01.639Z,-0.97
2022-12-14T23:26:23.200Z,-0.97
2022-12-14T23:28:44.278Z,-0.98
2022-12-14T23:31:11.497Z,-0.98
2022-12-14T23:33:32.719Z,-1.01
2022-12-14T23:35:53.689Z,-1.03
2022-12-14T23:38:15.914Z,-1.04
2022-12-14T23:40:37.142Z,-1.06
2022-12-14T23:42:57.870Z,-1.07
2022-12-14T23:45:18.930Z,-1.10
2022-12-14T23:47:39.725Z,-1.12
2022-12-14T23:50:00.725Z,-1.16
2022-12-14T23:52:21.642Z,-1.17
2022-12-14T23:54:44.021Z,-1.16
2022-12-14T23:57:04.835Z,-1.15
2022-12-14T23:59:31.603Z,-1.13
